sensor_id;sensor_type;location;lat;lon;timestamp;temperature;humidity
19330;DHT22;9799;48.214;16.388;2022-09-16T07:56:54;18.40;99.90
19330;DHT22;9799;48.214;16.388;2022-09-16T08:00:17;18.30;99.90
19330;DHT22;9799;48.214;16.388;2022-09-16T08:03:39;18.20;99.90
19330;DHT22;9799;48.214;16.388;2022-09-16T08:07:00;18.30;99.90
19330;DHT22;9799;48.214;16.388;2022-09-16T08:10:22;18.20;99.90
19330;DHT22;9799;48.214;16.388;2022-09-16T08:13:44;18.20;99.90
19330;DHT22;9799;48.214;16.388;2022-09-16T08:17:05;18.30;99.90
19330;DHT22;9799;48.214;16.388;2022-09-16T08:20:26;18.20;99.90
19330;DHT22;9799;48.214;16.388;2022-09-16T08:23:48;18.10;99.90
19330;DHT22;9799;48.214;16.388;2022-09-16T08:27:09;18.20;99.90
19330;DHT22;9799;48.214;16.388;2022-09-16T08:30:32;18.50;99.90
19330;DHT22;9799;48.214;16.388;2022-09-16T08:33:53;18.80;99.90
19330;DHT22;9799;48.214;16.388;2022-09-16T08:37:15;18.70;99.90
19330;DHT22;9799;48.214;16.388;2022-09-16T08:40:36;18.30;99.90
19330;DHT22;9799;48.214;16.388;2022-09-16T08:44:04;18.30;99.90
19330;DHT22;9799;48.214;16.388;2022-09-16T08:47:38;18.50;99.90
19330;DHT22;9799;48.214;16.388;2022-09-16T08:51:02;18.70;99.90
19330;DHT22;9799;48.214;16.388;2022-09-16T08:54:27;18.80;99.90
19330;DHT22;9799;48.214;16.388;2022-09-16T08:57:55;19.00;99.90
19330;DHT22;9799;48.214;16.388;2022-09-16T09:01:21;19.10;99.90
19330;DHT22;9799;48.214;16.388;2022-09-16T09:04:46;19.00;99.90
19330;DHT22;9799;48.214;16.388;2022-09-16T09:08:22;19.30;99.90
19330;DHT22;9799;48.214;16.388;2022-09-16T09:11:52;19.40;99.90
19330;DHT22;9799;48.214;16.388;2022-09-16T09:15:26;19.10;99.90
19330;DHT22;9799;48.214;16.388;2022-09-16T09:19:01;19.00;99.90
19330;DHT22;9799;48.214;16.388;2022-09-16T09:22:41;19.10;99.90
19330;DHT22;9799;48.214;16.388;2022-09-16T09:26:09;19.10;99.90
19330;DHT22;9799;48.214;16.388;2022-09-16T09:29:41;19.10;99.90
19330;DHT22;9799;48.214;16.388;2022-09-16T09:33:16;19.20;99.90
19330;DHT22;9799;48.214;16.388;2022-09-16T09:36:48;19.20;99.90
19330;DHT22;9799;48.214;16.388;2022-09-16T09:40:18;19.20;99.90
19330;DHT22;9799;48.214;16.388;2022-09-16T09:43:44;19.20;99.90
19330;DHT22;9799;48.214;16.388;2022-09-16T09:47:10;19.30;99.90
19330;DHT22;9799;48.214;16.388;2022-09-16T09:50:37;19.30;99.90
19330;DHT22;9799;48.214;16.388;2022-09-16T09:54:02;19.40;99.90
19330;DHT22;9799;48.214;16.388;2022-09-16T09:57:29;19.50;99.90
19330;DHT22;9799;48.214;16.388;2022-09-16T10:00:50;19.50;99.90
19330;DHT22;9799;48.214;16.388;2022-09-16T10:04:15;19.40;99.90
19330;DHT22;9799;48.214;16.388;2022-09-16T10:07:37;19.40;99.90
19330;DHT22;9799;48.214;16.388;2022-09-16T10:11:01;19.40;99.90
19330;DHT22;9799;48.214;16.388;2022-09-16T10:14:28;19.20;99.90
19330;DHT22;9799;48.214;16.388;2022-09-16T10:17:51;19.20;99.90
19330;DHT22;9799;48.214;16.388;2022-09-16T10:21:15;19.30;99.90
19330;DHT22;9799;48.214;16.388;2022-09-16T10:24:38;19.20;99.90
19330;DHT22;9799;48.214;16.388;2022-09-16T10:28:01;19.10;99.90
19330;DHT22;9799;48.214;16.388;2022-09-16T10:31:25;19.00;99.90
19330;DHT22;9799;48.214;16.388;2022-09-16T10:34:48;18.90;99.90
19330;DHT22;9799;48.214;16.388;2022-09-16T10:38:16;19.00;99.90
19330;DHT22;9799;48.214;16.388;2022-09-16T10:41:41;19.00;99.90
19330;DHT22;9799;48.214;16.388;2022-09-16T10:45:14;19.10;99.90
19330;DHT22;9799;48.214;16.388;2022-09-16T10:48:40;19.10;99.90
19330;DHT22;9799;48.214;16.388;2022-09-16T10:52:14;19.20;99.90
19330;DHT22;9799;48.214;16.388;2022-09-16T10:55:36;19.10;99.90
19330;DHT22;9799;48.214;16.388;2022-09-16T10:59:01;18.90;99.90
19330;DHT22;9799;48.214;16.388;2022-09-16T11:02:34;18.90;99.90
19330;DHT22;9799;48.214;16.388;2022-09-16T11:06:10;18.80;99.90
19330;DHT22;9799;48.214;16.388;2022-09-16T11:09:45;19.00;99.90
19330;DHT22;9799;48.214;16.388;2022-09-16T11:13:31;19.00;99.90
19330;DHT22;9799;48.214;16.388;2022-09-16T11:17:22;18.90;99.90
19330;DHT22;9799;48.214;16.388;2022-09-16T11:20:57;18.80;99.90
19330;DHT22;9799;48.214;16.388;2022-09-16T11:24:44;18.90;99.90
19330;DHT22;9799;48.214;16.388;2022-09-16T11:28:23;18.80;99.90
19330;DHT22;9799;48.214;16.388;2022-09-16T11:31:53;19.00;99.90
19330;DHT22;9799;48.214;16.388;2022-09-16T11:35:42;19.00;99.90
19330;DHT22;9799;48.214;16.388;2022-09-16T11:39:25;18.90;99.90
19330;DHT22;9799;48.214;16.388;2022-09-16T11:42:58;18.90;99.90
19330;DHT22;9799;48.214;16.388;2022-09-16T11:46:27;18.90;99.90
19330;DHT22;9799;48.214;16.388;2022-09-16T11:50:04;18.80;99.90
19330;DHT22;9799;48.214;16.388;2022-09-16T11:53:46;18.90;99.90
19330;DHT22;9799;48.214;16.388;2022-09-16T11:57:12;18.90;99.90
19330;DHT22;9799;48.214;16.388;2022-09-16T12:00:38;19.00;99.90
19330;DHT22;9799;48.214;16.388;2022-09-16T12:04:11;19.00;99.90
19330;DHT22;9799;48.214;16.388;2022-09-16T12:07:37;19.10;99.90
19330;DHT22;9799;48.214;16.388;2022-09-16T12:11:02;19.10;99.90
19330;DHT22;9799;48.214;16.388;2022-09-16T12:14:30;19.20;99.90
19330;DHT22;9799;48.214;16.388;2022-09-16T12:18:00;19.30;99.90
19330;DHT22;9799;48.214;16.388;2022-09-16T12:21:24;19.40;99.90
19330;DHT22;9799;48.214;16.388;2022-09-16T12:24:52;19.40;99.90
19330;DHT22;9799;48.214;16.388;2022-09-16T12:28:19;19.30;99.90
19330;DHT22;9799;48.214;16.388;2022-09-16T12:31:46;19.30;99.90
19330;DHT22;9799;48.214;16.388;2022-09-16T12:35:14;19.40;99.90
19330;DHT22;9799;48.214;16.388;2022-09-16T12:38:35;19.40;99.90
19330;DHT22;9799;48.214;16.388;2022-09-16T12:42:30;19.50;99.90
19330;DHT22;9799;48.214;16.388;2022-09-16T12:50:22;19.40;99.90
19330;DHT22;9799;48.214;16.388;2022-09-16T12:53:59;19.40;99.90
19330;DHT22;9799;48.214;16.388;2022-09-16T12:57:41;19.40;99.90
19330;DHT22;9799;48.214;16.388;2022-09-16T13:01:14;19.40;99.90
19330;DHT22;9799;48.214;16.388;2022-09-16T13:04:39;19.40;99.90
19330;DHT22;9799;48.214;16.388;2022-09-16T13:08:05;19.50;99.90
19330;DHT22;9799;48.214;16.388;2022-09-16T13:11:28;19.50;99.90
19330;DHT22;9799;48.214;16.388;2022-09-16T13:14:52;19.60;99.90
19330;DHT22;9799;48.214;16.388;2022-09-16T13:18:22;19.60;99.90
19330;DHT22;9799;48.214;16.388;2022-09-16T13:21:45;19.50;99.90
19330;DHT22;9799;48.214;16.388;2022-09-16T13:25:18;19.50;99.90
19330;DHT22;9799;48.214;16.388;2022-09-16T13:28:42;19.60;99.90
19330;DHT22;9799;48.214;16.388;2022-09-16T13:32:04;19.60;99.90
19330;DHT22;9799;48.214;16.388;2022-09-16T13:35:36;19.60;99.90
19330;DHT22;9799;48.214;16.388;2022-09-16T13:39:00;19.50;99.90
19330;DHT22;9799;48.214;16.388;2022-09-16T13:42:23;19.50;99.90
19330;DHT22;9799;48.214;16.388;2022-09-16T13:45:44;19.50;99.90
19330;DHT22;9799;48.214;16.388;2022-09-16T13:49:18;19.50;99.90
19330;DHT22;9799;48.214;16.388;2022-09-16T13:52:41;19.50;99.90
19330;DHT22;9799;48.214;16.388;2022-09-16T13:56:22;19.50;99.90
19330;DHT22;9799;48.214;16.388;2022-09-16T13:59:58;19.40;99.90
19330;DHT22;9799;48.214;16.388;2022-09-16T14:03:43;19.40;99.90
19330;DHT22;9799;48.214;16.388;2022-09-16T14:07:24;19.50;99.90
19330;DHT22;9799;48.214;16.388;2022-09-16T14:10:55;19.50;99.90
19330;DHT22;9799;48.214;16.388;2022-09-16T14:14:20;19.50;99.90
19330;DHT22;9799;48.214;16.388;2022-09-16T14:17:46;19.60;99.90
19330;DHT22;9799;48.214;16.388;2022-09-16T14:21:17;19.50;99.90
19330;DHT22;9799;48.214;16.388;2022-09-16T14:24:40;19.50;99.90
19330;DHT22;9799;48.214;16.388;2022-09-16T14:28:14;19.50;99.90
19330;DHT22;9799;48.214;16.388;2022-09-16T14:31:36;19.50;99.90
19330;DHT22;9799;48.214;16.388;2022-09-16T14:35:02;19.40;99.90
19330;DHT22;9799;48.214;16.388;2022-09-16T14:38:32;19.50;99.90
19330;DHT22;9799;48.214;16.388;2022-09-16T14:41:56;19.50;99.90
19330;DHT22;9799;48.214;16.388;2022-09-16T14:45:19;19.60;99.90
19330;DHT22;9799;48.214;16.388;2022-09-16T14:48:43;19.50;99.90
19330;DHT22;9799;48.214;16.388;2022-09-16T14:52:16;19.50;99.90
19330;DHT22;9799;48.214;16.388;2022-09-16T14:55:47;19.60;99.90
19330;DHT22;9799;48.214;16.388;2022-09-16T14:59:10;19.50;99.90
19330;DHT22;9799;48.214;16.388;2022-09-16T15:02:36;19.50;99.90
19330;DHT22;9799;48.214;16.388;2022-09-16T15:06:04;19.50;99.90
19330;DHT22;9799;48.214;16.388;2022-09-16T15:09:38;19.50;99.90
19330;DHT22;9799;48.214;16.388;2022-09-16T15:13:04;19.40;99.90
19330;DHT22;9799;48.214;16.388;2022-09-16T15:16:26;19.40;99.90
19330;DHT22;9799;48.214;16.388;2022-09-16T15:19:51;19.40;99.90
19330;DHT22;9799;48.214;16.388;2022-09-16T15:23:18;19.40;99.90
19330;DHT22;9799;48.214;16.388;2022-09-16T15:26:43;19.40;99.90
19330;DHT22;9799;48.214;16.388;2022-09-16T15:30:18;19.50;99.90
19330;DHT22;9799;48.214;16.388;2022-09-16T15:33:41;19.50;99.90
19330;DHT22;9799;48.214;16.388;2022-09-16T15:37:02;19.40;99.90
19330;DHT22;9799;48.214;16.388;2022-09-16T15:40:30;19.30;99.90
19330;DHT22;9799;48.214;16.388;2022-09-16T15:43:53;19.40;99.90
19330;DHT22;9799;48.214;16.388;2022-09-16T15:47:17;19.30;99.90
19330;DHT22;9799;48.214;16.388;2022-09-16T15:50:44;19.30;99.90
19330;DHT22;9799;48.214;16.388;2022-09-16T15:54:16;19.30;99.90
19330;DHT22;9799;48.214;16.388;2022-09-16T15:57:44;19.30;99.90
19330;DHT22;9799;48.214;16.388;2022-09-16T16:01:11;19.30;99.90
19330;DHT22;9799;48.214;16.388;2022-09-16T16:04:33;19.20;99.90
19330;DHT22;9799;48.214;16.388;2022-09-16T16:07:57;19.20;99.90
19330;DHT22;9799;48.214;16.388;2022-09-16T16:11:20;19.20;99.90
19330;DHT22;9799;48.214;16.388;2022-09-16T16:14:43;19.20;99.90
19330;DHT22;9799;48.214;16.388;2022-09-16T16:18:07;19.20;99.90
19330;DHT22;9799;48.214;16.388;2022-09-16T16:21:29;19.20;99.90
19330;DHT22;9799;48.214;16.388;2022-09-16T16:24:51;19.20;99.90
19330;DHT22;9799;48.214;16.388;2022-09-16T16:28:12;19.20;99.90
19330;DHT22;9799;48.214;16.388;2022-09-16T16:31:33;19.20;99.90
19330;DHT22;9799;48.214;16.388;2022-09-16T16:34:57;19.20;99.90
19330;DHT22;9799;48.214;16.388;2022-09-16T16:38:18;19.20;99.90
19330;DHT22;9799;48.214;16.388;2022-09-16T16:41:39;19.10;99.90
19330;DHT22;9799;48.214;16.388;2022-09-16T16:45:01;19.10;99.90
19330;DHT22;9799;48.214;16.388;2022-09-16T16:48:22;19.10;99.90
19330;DHT22;9799;48.214;16.388;2022-09-16T16:51:46;19.10;99.90
19330;DHT22;9799;48.214;16.388;2022-09-16T16:55:08;19.10;99.90
19330;DHT22;9799;48.214;16.388;2022-09-16T16:58:29;19.00;99.90
19330;DHT22;9799;48.214;16.388;2022-09-16T17:01:52;19.00;99.90
19330;DHT22;9799;48.214;16.388;2022-09-16T17:05:14;18.90;99.90
19330;DHT22;9799;48.214;16.388;2022-09-16T17:08:36;18.80;99.90
19330;DHT22;9799;48.214;16.388;2022-09-16T17:11:59;18.70;99.90
19330;DHT22;9799;48.214;16.388;2022-09-16T17:15:20;18.60;99.90
19330;DHT22;9799;48.214;16.388;2022-09-16T17:18:42;18.50;99.90
19330;DHT22;9799;48.214;16.388;2022-09-16T17:22:03;18.30;99.90
19330;DHT22;9799;48.214;16.388;2022-09-16T17:25:26;18.10;99.90
19330;DHT22;9799;48.214;16.388;2022-09-16T17:28:49;18.10;99.90
19330;DHT22;9799;48.214;16.388;2022-09-16T17:32:10;18.20;99.90
19330;DHT22;9799;48.214;16.388;2022-09-16T17:35:31;18.20;99.90
19330;DHT22;9799;48.214;16.388;2022-09-16T17:38:55;18.20;99.90
19330;DHT22;9799;48.214;16.388;2022-09-16T17:42:18;18.20;99.90
19330;DHT22;9799;48.214;16.388;2022-09-16T17:45:40;18.10;99.90
19330;DHT22;9799;48.214;16.388;2022-09-16T17:49:03;18.00;99.90
19330;DHT22;9799;48.214;16.388;2022-09-16T17:52:25;17.90;99.90
19330;DHT22;9799;48.214;16.388;2022-09-16T17:55:46;17.80;99.90
19330;DHT22;9799;48.214;16.388;2022-09-16T17:59:09;17.80;99.90
19330;DHT22;9799;48.214;16.388;2022-09-16T18:02:33;17.70;99.90
19330;DHT22;9799;48.214;16.388;2022-09-16T18:05:54;17.60;99.90
19330;DHT22;9799;48.214;16.388;2022-09-16T18:09:22;17.60;99.90
19330;DHT22;9799;48.214;16.388;2022-09-16T18:12:43;17.50;99.90
19330;DHT22;9799;48.214;16.388;2022-09-16T18:16:08;17.40;99.90
19330;DHT22;9799;48.214;16.388;2022-09-16T18:19:29;17.30;99.90
19330;DHT22;9799;48.214;16.388;2022-09-16T18:22:50;17.20;99.90
19330;DHT22;9799;48.214;16.388;2022-09-16T18:26:13;17.20;99.90
19330;DHT22;9799;48.214;16.388;2022-09-16T18:29:34;17.30;99.90
19330;DHT22;9799;48.214;16.388;2022-09-16T18:32:56;17.30;99.90
19330;DHT22;9799;48.214;16.388;2022-09-16T18:36:17;17.30;99.90
19330;DHT22;9799;48.214;16.388;2022-09-16T18:39:41;17.30;99.90
19330;DHT22;9799;48.214;16.388;2022-09-16T18:43:02;17.30;99.90
19330;DHT22;9799;48.214;16.388;2022-09-16T18:46:25;17.40;99.90
19330;DHT22;9799;48.214;16.388;2022-09-16T18:49:48;17.30;99.90
19330;DHT22;9799;48.214;16.388;2022-09-16T18:53:10;17.30;99.90
19330;DHT22;9799;48.214;16.388;2022-09-16T18:56:32;17.10;99.90
19330;DHT22;9799;48.214;16.388;2022-09-16T18:59:54;17.10;99.90
19330;DHT22;9799;48.214;16.388;2022-09-16T19:03:15;17.00;99.90
19330;DHT22;9799;48.214;16.388;2022-09-16T19:06:39;17.00;99.90
19330;DHT22;9799;48.214;16.388;2022-09-16T19:10:00;16.80;99.90
19330;DHT22;9799;48.214;16.388;2022-09-16T19:13:22;16.80;99.90
19330;DHT22;9799;48.214;16.388;2022-09-16T19:16:44;16.80;99.90
19330;DHT22;9799;48.214;16.388;2022-09-16T19:20:06;16.60;99.90
19330;DHT22;9799;48.214;16.388;2022-09-16T19:23:29;16.50;99.90
19330;DHT22;9799;48.214;16.388;2022-09-16T19:26:52;16.40;99.90
19330;DHT22;9799;48.214;16.388;2022-09-16T19:30:13;16.30;99.90
19330;DHT22;9799;48.214;16.388;2022-09-16T19:33:35;16.20;99.90
19330;DHT22;9799;48.214;16.388;2022-09-16T19:36:57;16.30;99.90
19330;DHT22;9799;48.214;16.388;2022-09-16T19:40:19;16.10;99.90
19330;DHT22;9799;48.214;16.388;2022-09-16T19:43:41;16.10;99.90
19330;DHT22;9799;48.214;16.388;2022-09-16T19:47:02;16.10;99.90
19330;DHT22;9799;48.214;16.388;2022-09-16T19:50:23;16.00;99.90
19330;DHT22;9799;48.214;16.388;2022-09-16T19:53:45;15.70;99.90
19330;DHT22;9799;48.214;16.388;2022-09-16T19:57:09;15.70;99.90
19330;DHT22;9799;48.214;16.388;2022-09-16T20:00:30;15.60;99.90
19330;DHT22;9799;48.214;16.388;2022-09-16T20:03:52;15.60;99.90
19330;DHT22;9799;48.214;16.388;2022-09-16T20:07:13;15.40;99.90
19330;DHT22;9799;48.214;16.388;2022-09-16T20:10:36;15.50;99.90
19330;DHT22;9799;48.214;16.388;2022-09-16T20:14:00;15.50;99.90
19330;DHT22;9799;48.214;16.388;2022-09-16T20:17:25;15.50;99.90
19330;DHT22;9799;48.214;16.388;2022-09-16T20:20:46;15.50;99.90
19330;DHT22;9799;48.214;16.388;2022-09-16T20:24:13;15.30;99.90
19330;DHT22;9799;48.214;16.388;2022-09-16T20:27:34;15.40;99.90
19330;DHT22;9799;48.214;16.388;2022-09-16T20:30:58;15.30;99.90
19330;DHT22;9799;48.214;16.388;2022-09-16T20:34:19;15.30;99.90
19330;DHT22;9799;48.214;16.388;2022-09-16T20:37:43;15.30;99.90
19330;DHT22;9799;48.214;16.388;2022-09-16T20:41:04;15.30;99.90
19330;DHT22;9799;48.214;16.388;2022-09-16T20:44:26;15.20;99.90
19330;DHT22;9799;48.214;16.388;2022-09-16T20:47:51;15.20;99.90
19330;DHT22;9799;48.214;16.388;2022-09-16T20:51:13;15.10;99.90
19330;DHT22;9799;48.214;16.388;2022-09-16T20:54:35;15.20;99.90
19330;DHT22;9799;48.214;16.388;2022-09-16T20:57:56;15.10;99.90
19330;DHT22;9799;48.214;16.388;2022-09-16T21:01:18;15.00;99.90
19330;DHT22;9799;48.214;16.388;2022-09-16T21:04:42;15.00;99.90
19330;DHT22;9799;48.214;16.388;2022-09-16T21:08:03;14.90;99.90
19330;DHT22;9799;48.214;16.388;2022-09-16T21:11:26;15.00;99.90
19330;DHT22;9799;48.214;16.388;2022-09-16T21:14:48;15.10;99.90
19330;DHT22;9799;48.214;16.388;2022-09-16T21:18:09;15.20;99.90
19330;DHT22;9799;48.214;16.388;2022-09-16T21:21:32;15.20;99.90
19330;DHT22;9799;48.214;16.388;2022-09-16T21:24:53;15.00;99.90
19330;DHT22;9799;48.214;16.388;2022-09-16T21:28:14;15.10;99.90
19330;DHT22;9799;48.214;16.388;2022-09-16T21:31:37;15.00;99.90
19330;DHT22;9799;48.214;16.388;2022-09-16T21:34:58;15.00;99.90
19330;DHT22;9799;48.214;16.388;2022-09-16T21:38:20;15.00;99.90
19330;DHT22;9799;48.214;16.388;2022-09-16T21:41:43;14.90;99.90
19330;DHT22;9799;48.214;16.388;2022-09-16T21:45:05;14.90;99.90
19330;DHT22;9799;48.214;16.388;2022-09-16T21:48:30;15.00;99.90
19330;DHT22;9799;48.214;16.388;2022-09-16T21:51:53;15.00;99.90
19330;DHT22;9799;48.214;16.388;2022-09-16T21:55:16;14.90;99.90
19330;DHT22;9799;48.214;16.388;2022-09-16T21:58:37;14.90;99.90
19330;DHT22;9799;48.214;16.388;2022-09-16T22:01:58;14.90;99.90
19330;DHT22;9799;48.214;16.388;2022-09-16T22:05:20;15.00;99.90
19330;DHT22;9799;48.214;16.388;2022-09-16T22:08:42;15.10;99.90
19330;DHT22;9799;48.214;16.388;2022-09-16T22:12:05;15.10;99.90
19330;DHT22;9799;48.214;16.388;2022-09-16T22:15:26;15.00;99.90
19330;DHT22;9799;48.214;16.388;2022-09-16T22:18:47;15.00;99.90
19330;DHT22;9799;48.214;16.388;2022-09-16T22:22:08;15.00;99.90
19330;DHT22;9799;48.214;16.388;2022-09-16T22:25:29;15.00;99.90
19330;DHT22;9799;48.214;16.388;2022-09-16T22:28:52;15.00;99.90
19330;DHT22;9799;48.214;16.388;2022-09-16T22:32:13;15.00;99.90
19330;DHT22;9799;48.214;16.388;2022-09-16T22:35:34;15.10;99.90
19330;DHT22;9799;48.214;16.388;2022-09-16T22:38:58;15.20;99.90
19330;DHT22;9799;48.214;16.388;2022-09-16T22:42:19;15.10;99.90
19330;DHT22;9799;48.214;16.388;2022-09-16T22:45:42;15.20;99.90
19330;DHT22;9799;48.214;16.388;2022-09-16T22:49:03;15.20;99.90
19330;DHT22;9799;48.214;16.388;2022-09-16T22:52:24;15.10;99.90
19330;DHT22;9799;48.214;16.388;2022-09-16T22:55:45;15.10;99.90
19330;DHT22;9799;48.214;16.388;2022-09-16T22:59:09;15.20;99.90
19330;DHT22;9799;48.214;16.388;2022-09-16T23:02:34;15.20;99.90
19330;DHT22;9799;48.214;16.388;2022-09-16T23:05:57;15.00;99.90
19330;DHT22;9799;48.214;16.388;2022-09-16T23:09:18;15.00;99.90
19330;DHT22;9799;48.214;16.388;2022-09-16T23:12:41;15.10;99.90
19330;DHT22;9799;48.214;16.388;2022-09-16T23:16:04;15.10;99.90
19330;DHT22;9799;48.214;16.388;2022-09-16T23:19:27;15.00;99.90
19330;DHT22;9799;48.214;16.388;2022-09-16T23:22:48;15.00;99.90
19330;DHT22;9799;48.214;16.388;2022-09-16T23:26:11;15.00;99.90
19330;DHT22;9799;48.214;16.388;2022-09-16T23:29:32;15.00;99.90
19330;DHT22;9799;48.214;16.388;2022-09-16T23:32:53;15.10;99.90
19330;DHT22;9799;48.214;16.388;2022-09-16T23:36:16;15.10;99.90
19330;DHT22;9799;48.214;16.388;2022-09-16T23:39:38;15.00;99.90
19330;DHT22;9799;48.214;16.388;2022-09-16T23:42:58;14.90;99.90
19330;DHT22;9799;48.214;16.388;2022-09-16T23:46:21;14.90;99.90
19330;DHT22;9799;48.214;16.388;2022-09-16T23:49:42;14.90;99.90
19330;DHT22;9799;48.214;16.388;2022-09-16T23:53:05;14.90;99.90
19330;DHT22;9799;48.214;16.388;2022-09-16T23:56:26;14.90;99.90
19330;DHT22;9799;48.214;16.388;2022-09-16T23:59:47;14.90;99.90
